createdAt,value
2022-11-22T00:01:20.686Z,1.4
2022-11-22T00:06:18.542Z,1.3
2022-11-22T00:11:16.613Z,1.1
2022-11-22T00:16:14.436Z,1.1
2022-11-22T00:21:12.530Z,1.3
2022-11-22T00:26:10.709Z,1.5
2022-11-22T00:31:08.831Z,1.4
2022-11-22T00:36:06.825Z,1.3
2022-11-22T00:41:04.837Z,1.1
2022-11-22T00:46:02.890Z,0.9
2022-11-22T00:51:00.671Z,0.9
2022-11-22T00:55:58.855Z,1.1
2022-11-22T01:00:57.290Z,1.6
2022-11-22T01:05:55.492Z,1.6
2022-11-22T01:10:53.795Z,1.5
2022-11-22T01:15:52.079Z,1.2
2022-11-22T01:20:50.019Z,1.1
2022-11-22T01:25:48.113Z,1
2022-11-22T01:30:46.279Z,0.7
2022-11-22T01:35:44.504Z,0.6
2022-11-22T01:40:42.556Z,0.3
2022-11-22T01:45:40.485Z,0.3
2022-11-22T01:50:38.357Z,0.2
2022-11-22T01:55:36.749Z,0.2
2022-11-22T02:00:34.824Z,0
2022-11-22T02:05:32.910Z,-0.1
2022-11-22T02:10:30.986Z,0.2
2022-11-22T02:15:29.263Z,0.1
2022-11-22T02:20:27.218Z,0.1
2022-11-22T02:25:25.320Z,-0.2
2022-11-22T02:30:23.396Z,-0.3
2022-11-22T02:35:21.714Z,-0.1
2022-11-22T02:40:19.741Z,-0.1
2022-11-22T02:45:17.837Z,-0.3
2022-11-22T02:50:16.202Z,-0.1
2022-11-22T02:55:14.398Z,-0.1
2022-11-22T03:00:12.724Z,-0.1
2022-11-22T03:05:10.880Z,-0.2
2022-11-22T03:10:08.980Z,-0.3
2022-11-22T03:15:07.169Z,-0.4
2022-11-22T03:20:05.223Z,-0.4
2022-11-22T03:25:03.261Z,-0.5
2022-11-22T03:30:01.306Z,-0.4
2022-11-22T03:34:59.483Z,-0.6
2022-11-22T03:39:57.559Z,-0.6
2022-11-22T03:44:55.666Z,-0.5
2022-11-22T03:49:53.859Z,-0.5
2022-11-22T03:54:52.255Z,-0.5
2022-11-22T03:59:50.414Z,-0.5
2022-11-22T04:04:48.480Z,-0.9
2022-11-22T04:09:46.637Z,-0.8
2022-11-22T04:14:44.579Z,-1
2022-11-22T04:19:42.332Z,-1.1
2022-11-22T04:24:40.628Z,-1
2022-11-22T04:29:38.677Z,-1.1
2022-11-22T04:34:36.724Z,-1
2022-11-22T04:39:35.013Z,-1.1
2022-11-22T04:44:33.128Z,-1.1
2022-11-22T04:49:34.186Z,-1
2022-11-22T04:54:31.914Z,-0.9
2022-11-22T04:59:30.487Z,-0.3
2022-11-22T05:04:28.880Z,0.1
2022-11-22T05:09:27.695Z,0.6
2022-11-22T05:14:25.895Z,0.7
2022-11-22T05:19:24.406Z,0.8
2022-11-22T05:24:22.723Z,1.1
2022-11-22T05:29:20.993Z,1.2
2022-11-22T05:34:19.390Z,1.2
2022-11-22T05:39:17.620Z,1.3
2022-11-22T05:44:15.775Z,0.8
2022-11-22T05:49:14.042Z,0.9
2022-11-22T05:54:11.990Z,1
2022-11-22T05:59:10.381Z,1.1
2022-11-22T06:04:08.936Z,1.5
2022-11-22T06:09:07.461Z,2
2022-11-22T06:14:05.719Z,2.1
2022-11-22T06:19:04.124Z,2.6
2022-11-22T06:24:03.132Z,3.2
2022-11-22T06:29:01.896Z,3.7
2022-11-22T06:34:00.869Z,4.3
2022-11-22T06:39:00.437Z,5.7
2022-11-22T06:44:01.197Z,7.7
2022-11-22T06:48:59.825Z,7.2
2022-11-22T06:53:58.156Z,7.6
2022-11-22T06:58:56.556Z,7.6
2022-11-22T07:03:54.646Z,7.3
2022-11-22T07:08:52.537Z,6.8
2022-11-22T07:13:50.760Z,7.1
2022-11-22T07:18:49.124Z,7.7
2022-11-22T07:23:48.804Z,8.8
2022-11-22T07:28:46.897Z,8.3
2022-11-22T07:33:44.743Z,8.1
2022-11-22T07:38:44.611Z,9.9
2022-11-22T07:43:42.908Z,9.3
2022-11-22T07:48:42.876Z,10.7
2022-11-22T07:53:40.886Z,10.6
2022-11-22T07:58:39.182Z,10.6
2022-11-22T08:03:36.784Z,9.8
2022-11-22T08:08:34.480Z,9.3
2022-11-22T08:13:32.449Z,8.9
2022-11-22T08:18:30.654Z,9.1
2022-11-22T08:23:28.713Z,9.1
2022-11-22T08:28:27.151Z,9.4
2022-11-22T08:33:25.834Z,9.6
2022-11-22T08:38:24.616Z,10.1
2022-11-22T08:43:23.493Z,10.6
2022-11-22T08:48:22.771Z,11.3
2022-11-22T08:53:21.234Z,11.7
2022-11-22T08:58:20.043Z,12.5
2022-11-22T09:03:18.887Z,13
2022-11-22T09:08:24.995Z,13.1
2022-11-22T09:13:15.689Z,12.4
2022-11-22T09:18:13.010Z,11.9
2022-11-22T09:23:11.084Z,12.1
2022-11-22T09:28:10.237Z,13.2
2022-11-22T09:33:09.746Z,14.4
2022-11-22T09:38:09.121Z,15.4
2022-11-22T09:43:07.717Z,15.7
2022-11-22T09:48:09.634Z,16.3
2022-11-22T09:53:06.042Z,17.5
2022-11-22T09:58:03.729Z,17
2022-11-22T10:03:01.537Z,17
2022-11-22T10:07:59.951Z,17.3
2022-11-22T10:12:58.357Z,17.4
2022-11-22T10:17:56.243Z,17.1
2022-11-22T10:22:54.313Z,16.9
2022-11-22T10:27:53.916Z,16.9
2022-11-22T10:32:49.993Z,16.2
2022-11-22T10:37:48.597Z,16.7
2022-11-22T10:42:48.371Z,18.2
2022-11-22T10:47:47.415Z,18.7
2022-11-22T10:52:45.228Z,17.4
2022-11-22T10:57:42.471Z,16.9
2022-11-22T11:02:39.678Z,16.5
2022-11-22T11:07:37.200Z,15.8
2022-11-22T11:12:34.624Z,14.3
2022-11-22T11:17:31.995Z,13.5
2022-11-22T11:22:51.774Z,13
2022-11-22T11:27:27.202Z,12.1
2022-11-22T11:32:25.010Z,11.4
2022-11-22T11:37:22.692Z,10.7
2022-11-22T11:42:20.708Z,10.4
2022-11-22T11:47:18.657Z,9.9
2022-11-22T11:52:17.053Z,9.6
2022-11-22T11:57:15.177Z,9.2
2022-11-22T12:02:13.329Z,8.9
2022-11-22T12:07:11.412Z,8.8
2022-11-22T12:12:09.329Z,8.7
2022-11-22T12:17:07.413Z,8.6
2022-11-22T12:22:05.349Z,8.5
2022-11-22T12:27:03.615Z,8.5
2022-11-22T12:32:01.941Z,8.7
2022-11-22T12:37:00.121Z,8.7
2022-11-22T12:41:58.541Z,8.7
2022-11-22T12:46:56.848Z,8.3
2022-11-22T12:51:55.338Z,8.3
2022-11-22T12:56:53.852Z,8.5
2022-11-22T13:01:52.484Z,8.8
2022-11-22T13:06:51.242Z,9.5
2022-11-22T13:11:50.605Z,10.3
2022-11-22T13:16:49.104Z,10.6
2022-11-22T13:21:47.434Z,10.4
2022-11-22T13:26:45.447Z,10.2
2022-11-22T13:31:43.816Z,10.1
2022-11-22T13:36:42.036Z,10.1
2022-11-22T13:41:40.391Z,10.2
2022-11-22T13:46:39.074Z,10.5
2022-11-22T13:51:37.820Z,10.8
2022-11-22T13:56:36.080Z,10.9
2022-11-22T14:01:34.684Z,11.2
2022-11-22T14:06:32.989Z,11.2
2022-11-22T14:11:31.259Z,10.9
2022-11-22T14:16:29.286Z,10.8
2022-11-22T14:21:27.340Z,10.3
2022-11-22T14:26:25.274Z,9.7
2022-11-22T14:31:23.241Z,9.4
2022-11-22T14:36:21.173Z,8.9
2022-11-22T14:41:19.029Z,8.6
2022-11-22T14:46:37.634Z,8.4
2022-11-22T14:51:14.980Z,8.1
2022-11-22T14:56:12.980Z,7.9
2022-11-22T15:01:11.042Z,7.8
2022-11-22T15:09:08.899Z,7.7
2022-11-22T15:11:07.297Z,7.4
2022-11-22T16:00:50.579Z,7.7
2022-11-22T16:06:04.913Z,7.5
2022-11-22T16:10:47.331Z,7.4
2022-11-22T16:15:45.581Z,7.2
2022-11-22T16:20:43.552Z,7.2
2022-11-22T16:25:41.781Z,7.2
2022-11-22T16:30:40.375Z,7.1
2022-11-22T16:35:38.602Z,7.2
2022-11-22T16:40:37.057Z,7.2
2022-11-22T16:45:35.478Z,7.2
2022-11-22T16:50:34.136Z,7.2
2022-11-22T16:55:32.318Z,7.1
2022-11-22T17:00:30.539Z,7.2
2022-11-22T17:05:29.042Z,7.2
2022-11-22T17:10:27.531Z,7.2
2022-11-22T17:15:25.865Z,6.9
2022-11-22T17:20:24.196Z,6.5
2022-11-22T17:25:22.413Z,6.6
2022-11-22T17:30:21.192Z,6.5
2022-11-22T17:35:19.041Z,6.6
2022-11-22T17:40:17.322Z,6.6
2022-11-22T17:45:16.020Z,6.6
2022-11-22T17:50:14.739Z,6.7
2022-11-22T17:55:14.443Z,6.8
2022-11-22T18:00:11.735Z,6.9
2022-11-22T18:05:10.214Z,6.9
2022-11-22T18:10:08.770Z,6.9
2022-11-22T18:15:07.696Z,6.9
2022-11-22T18:20:05.974Z,7
2022-11-22T18:25:04.327Z,7
2022-11-22T18:30:03.116Z,7
2022-11-22T18:35:01.574Z,6.9
2022-11-22T18:40:00.096Z,7.1
2022-11-22T18:44:58.515Z,7.1
2022-11-22T18:49:57.429Z,7.2
2022-11-22T18:54:56.004Z,7.3
2022-11-22T18:59:54.700Z,7.4
2022-11-22T19:04:53.064Z,7.5
2022-11-22T19:09:51.819Z,7.7
2022-11-22T19:14:50.134Z,7.7
2022-11-22T19:19:48.627Z,7.7
2022-11-22T19:24:47.412Z,7.8
2022-11-22T19:29:45.359Z,7.7
2022-11-22T19:34:43.625Z,7.6
2022-11-22T19:39:41.773Z,7.6
2022-11-22T19:44:39.981Z,7.5
2022-11-22T19:49:38.493Z,7.6
2022-11-22T19:54:37.092Z,7.6
2022-11-22T19:59:35.842Z,7.7
2022-11-22T20:04:33.774Z,7.6
2022-11-22T20:09:32.100Z,7.5
2022-11-22T20:14:30.447Z,7.5
2022-11-22T20:19:32.760Z,7.7
2022-11-22T20:24:26.545Z,7.7
2022-11-22T20:29:25.038Z,7.8
2022-11-22T20:34:23.390Z,8.1
2022-11-22T20:39:21.520Z,8.2
2022-11-22T20:44:25.702Z,8.3
2022-11-22T20:49:20.543Z,8.3
2022-11-22T20:54:18.682Z,8.3
2022-11-22T20:59:16.856Z,8.2
2022-11-22T21:04:15.625Z,8.2
2022-11-22T21:09:14.188Z,8.1
2022-11-22T21:14:12.268Z,8.1
2022-11-22T21:19:10.337Z,8.1
2022-11-22T21:24:08.558Z,7.9
2022-11-22T21:29:09.200Z,8.1
2022-11-22T21:34:05.204Z,8
2022-11-22T21:39:03.611Z,7.9
2022-11-22T21:44:02.011Z,7.9
2022-11-22T21:49:00.720Z,7.9
2022-11-22T21:53:58.919Z,7.9
2022-11-22T21:58:57.120Z,8
2022-11-22T22:03:55.906Z,8.1
2022-11-22T22:08:54.475Z,8.1
2022-11-22T22:13:52.800Z,8.1
2022-11-22T22:18:51.195Z,8.1
2022-11-22T22:23:49.576Z,8.1
2022-11-22T22:28:47.905Z,8.1
2022-11-22T22:33:45.921Z,8.1
2022-11-22T22:38:44.497Z,7.9
2022-11-22T22:43:42.663Z,7.9
2022-11-22T22:48:41.007Z,7.9
2022-11-22T22:53:39.055Z,7.9
2022-11-22T22:58:37.123Z,7.8
2022-11-22T23:03:35.368Z,7.8
2022-11-22T23:08:33.477Z,7.7
2022-11-22T23:13:31.759Z,7.7
2022-11-22T23:18:30.008Z,7.7
2022-11-22T23:23:28.481Z,7.6
2022-11-22T23:28:26.831Z,7.6
2022-11-22T23:33:25.181Z,7.6
2022-11-22T23:38:24.598Z,7.5
2022-11-22T23:43:22.841Z,7.5
2022-11-22T23:48:21.410Z,7.6
2022-11-22T23:53:19.414Z,7.6
2022-11-22T23:58:18.078Z,7.6
